Time;durP1;ratioP1;P1;durP2;ratioP2;P2;SDS_P1;SDS_P2;PMS_P1;PMS_P2;Temp;Humidity;BMP_temperature;BMP_pressure;BME280_temperature;BME280_humidity;BME280_pressure;Samples;Min_cycle;Max_cycle;Signal;HPM_P1;HPM_P2
2022/11/20 00:02:20;;;;;;;0.20;0.20;;;;;;;-0.17;100.00;96004.63;4982351;28;20132;-74
2022/11/20 00:05:07;;;;;;;0.10;0.10;;;;;;;-0.29;100.00;95993.84;4968024;28;20115;-73
2022/11/20 00:07:52;;;;;;;0.20;0.20;;;;;;;-0.74;100.00;95993.28;4960110;28;20125;-71
2022/11/20 00:10:56;;;;;;;0.20;0.20;;;;;;;-0.77;100.00;96000.75;4985406;28;20033;-69
2022/11/20 00:13:46;;;;;;;0.20;0.20;;;;;;;-0.92;100.00;95998.19;4983989;28;20046;-69
2022/11/20 00:16:33;;;;;;;0.20;0.20;;;;;;;-1.22;100.00;95981.72;4980310;28;20519;-75
2022/11/20 00:19:19;;;;;;;0.20;0.20;;;;;;;-1.10;100.00;95988.09;4986228;28;20387;-74
2022/11/20 00:22:05;;;;;;;0.20;0.20;;;;;;;-1.09;100.00;95989.72;4987516;28;20042;-74
2022/11/20 00:24:51;;;;;;;0.20;0.20;;;;;;;-1.16;100.00;95987.03;4987997;28;20263;-71
2022/11/20 00:27:36;;;;;;;0.15;0.15;;;;;;;-1.16;100.00;95978.34;4985339;28;20050;-70
2022/11/20 00:30:22;;;;;;;0.10;0.10;;;;;;;-1.04;100.00;95987.34;4952330;28;20064;-74
2022/11/20 00:33:08;;;;;;;0.20;0.20;;;;;;;-1.11;100.00;95978.59;4980387;28;20042;-74
2022/11/20 00:36:01;;;;;;;0.10;0.10;;;;;;;-1.01;100.00;95988.78;4984593;28;20045;-74
2022/11/20 00:38:52;;;;;;;0.20;0.20;;;;;;;-0.90;100.00;95996.16;4984604;28;20045;-71
2022/11/20 00:41:38;;;;;;;0.10;0.10;;;;;;;-0.87;100.00;95991.34;4985153;28;20057;-72
2022/11/20 00:44:23;;;;;;;0.20;0.20;;;;;;;-0.70;100.00;95993.69;4989107;28;20378;-72
2022/11/20 00:47:09;;;;;;;0.10;0.10;;;;;;;-0.75;100.00;95978.53;4988456;28;20035;-72
2022/11/20 00:49:55;;;;;;;0.15;0.15;;;;;;;-0.68;100.00;95979.38;4987349;28;20049;-72
2022/11/20 00:52:41;;;;;;;0.20;0.20;;;;;;;-0.80;100.00;95987.97;4991167;28;20128;-71
2022/11/20 00:55:27;;;;;;;0.10;0.10;;;;;;;-0.94;100.00;95989.66;4981113;28;20104;-73
2022/11/20 00:58:13;;;;;;;0.55;0.20;;;;;;;-0.94;100.00;95982.56;4981922;28;20041;-72
2022/11/20 01:01:15;;;;;;;0.10;0.10;;;;;;;-0.75;100.00;95999.53;4985032;28;20468;-71
2022/11/20 01:04:01;;;;;;;0.20;0.20;;;;;;;-0.83;100.00;95990.97;4983854;28;20125;-73
2022/11/20 01:06:47;;;;;;;0.13;0.13;;;;;;;-0.76;100.00;95986.59;4974609;28;20149;-69
2022/11/20 01:09:33;;;;;;;0.17;0.17;;;;;;;-0.62;100.00;95993.59;4980064;28;20407;-73
2022/11/20 01:12:19;;;;;;;0.10;0.10;;;;;;;-0.33;100.00;95997.84;4983817;28;20054;-72
2022/11/20 01:15:05;;;;;;;0.10;0.10;;;;;;;-0.19;100.00;95986.41;4971813;28;20113;-71
2022/11/20 01:17:51;;;;;;;0.10;0.10;;;;;;;-0.21;100.00;95975.28;4978426;28;20335;-71
2022/11/20 01:20:37;;;;;;;0.20;0.20;;;;;;;-0.24;100.00;95978.28;4985073;28;20269;-74
2022/11/20 01:23:22;;;;;;;0.20;0.20;;;;;;;-0.56;100.00;95983.09;4983295;28;20049;-73
2022/11/20 01:26:14;;;;;;;0.13;0.13;;;;;;;-0.64;100.00;95979.81;4985990;28;20043;-74
2022/11/20 01:29:01;;;;;;;0.20;0.20;;;;;;;-0.53;100.00;95981.94;4960185;28;20057;-74
2022/11/20 01:31:47;;;;;;;0.15;0.15;;;;;;;-0.48;100.00;95984.78;4986359;28;20046;-71
2022/11/20 01:34:33;;;;;;;0.20;0.20;;;;;;;-0.53;100.00;95984.56;4972548;28;20045;-73
2022/11/20 01:37:19;;;;;;;0.10;0.10;;;;;;;-0.57;100.00;95978.06;4970818;28;20392;-69
2022/11/20 01:40:05;;;;;;;0.10;0.10;;;;;;;-0.37;100.00;95972.94;4982670;28;20325;-72
2022/11/20 01:43:21;;;;;;;0.20;0.20;;;;;;;-0.13;100.00;95964.59;4982354;28;20859;-72
2022/11/20 01:46:16;;;;;;;0.10;0.10;;;;;;;-0.19;100.00;95975.09;4982109;28;20112;-71
2022/11/20 01:49:08;;;;;;;0.10;0.10;;;;;;;-0.17;100.00;95970.44;4982524;28;20053;-73
2022/11/20 01:52:01;;;;;;;0.20;0.20;;;;;;;-0.33;100.00;95964.47;4981173;28;20699;-72
2022/11/20 01:55:03;;;;;;;0.10;0.10;;;;;;;-0.45;100.00;95963.41;4982386;28;20025;-71
2022/11/20 01:57:52;;;;;;;0.10;0.10;;;;;;;-0.26;100.00;95968.97;4965421;28;20255;-72
2022/11/20 02:00:38;;;;;;;0.10;0.10;;;;;;;-0.27;100.00;95968.16;4981331;28;20054;-73
2022/11/20 02:03:25;;;;;;;0.20;0.20;;;;;;;-0.15;100.00;95953.47;4981324;28;20156;-73
2022/11/20 02:06:25;;;;;;;0.10;0.10;;;;;;;-0.11;100.00;95956.50;4983876;28;20030;-71
2022/11/20 02:09:11;;;;;;;0.10;0.10;;;;;;;-0.04;100.00;95950.28;4983805;28;20095;-73
2022/11/20 02:11:57;;;;;;;0.10;0.10;;;;;;;0.01;100.00;95949.72;4973354;28;20045;-75
2022/11/20 02:14:43;;;;;;;0.10;0.10;;;;;;;-0.25;100.00;95946.91;4983486;28;20111;-70
2022/11/20 02:17:29;;;;;;;0.10;0.10;;;;;;;-0.10;100.00;95953.69;4970586;28;20046;-73
2022/11/20 02:20:15;;;;;;;0.10;0.10;;;;;;;-0.18;100.00;95953.03;4972258;28;20133;-73
2022/11/20 02:23:35;;;;;;;0.10;0.10;;;;;;;-0.47;100.00;95957.50;4982773;28;20092;-71
2022/11/20 02:26:23;;;;;;;0.20;0.20;;;;;;;-0.34;100.00;95954.16;4984007;28;20034;-72
2022/11/20 02:29:09;;;;;;;0.10;0.10;;;;;;;-0.19;100.00;95951.41;4955989;28;20039;-70
2022/11/20 02:31:57;;;;;;;0.15;0.15;;;;;;;-0.09;100.00;95946.59;4972021;28;20074;-73
2022/11/20 02:34:43;;;;;;;0.10;0.10;;;;;;;-0.38;100.00;95937.97;4983284;28;20291;-73
2022/11/20 02:37:34;;;;;;;0.10;0.10;;;;;;;-0.22;100.00;95946.56;4983811;28;20514;-71
2022/11/20 02:40:21;;;;;;;0.20;0.20;;;;;;;-0.21;100.00;95951.63;4984219;28;20042;-75
2022/11/20 02:43:08;;;;;;;0.20;0.20;;;;;;;-0.38;100.00;95948.47;4986329;28;20054;-75
2022/11/20 02:45:54;;;;;;;0.15;0.15;;;;;;;-0.40;100.00;95933.88;4965738;28;20076;-71
2022/11/20 02:48:40;;;;;;;0.15;0.15;;;;;;;-0.51;100.00;95945.75;4974393;28;20723;-72
2022/11/20 02:51:25;;;;;;;0.13;0.13;;;;;;;-0.54;100.00;95943.53;4989592;28;20046;-72
2022/11/20 02:54:12;;;;;;;0.20;0.20;;;;;;;-0.39;100.00;95936.34;4987350;28;20046;-70
2022/11/20 02:56:58;;;;;;;0.20;0.20;;;;;;;-0.18;100.00;95932.81;4985094;28;20100;-75
2022/11/20 02:59:43;;;;;;;0.10;0.10;;;;;;;-0.05;100.00;95937.34;4981636;28;20160;-74
2022/11/20 03:02:32;;;;;;;0.20;0.20;;;;;;;0.15;100.00;95937.41;4980680;28;20369;-71
2022/11/20 03:05:18;;;;;;;0.13;0.13;;;;;;;0.28;100.00;95927.75;4991436;28;20049;-72
2022/11/20 03:08:04;;;;;;;0.20;0.20;;;;;;;0.24;100.00;95925.72;4985731;28;20121;-70
2022/11/20 03:10:50;;;;;;;0.20;0.20;;;;;;;0.42;100.00;95933.88;4987463;28;20703;-73
2022/11/20 03:13:36;;;;;;;0.20;0.20;;;;;;;0.34;100.00;95930.63;4987498;28;21149;-74
2022/11/20 03:16:23;;;;;;;0.10;0.10;;;;;;;0.22;100.00;95939.06;4988448;28;20052;-72
2022/11/20 03:19:09;;;;;;;0.17;0.17;;;;;;;0.23;100.00;95940.72;4986933;28;20069;-70
2022/11/20 03:21:55;;;;;;;0.20;0.20;;;;;;;0.21;100.00;95924.28;4986678;28;20054;-74
2022/11/20 03:24:40;;;;;;;0.10;0.10;;;;;;;0.37;100.00;95924.94;4987171;28;20049;-71
2022/11/20 03:27:26;;;;;;;0.10;0.10;;;;;;;0.36;100.00;95923.34;4988067;28;20057;-73
2022/11/20 03:30:13;;;;;;;0.13;0.13;;;;;;;0.46;100.00;95921.94;4963821;28;20128;-74
2022/11/20 03:32:59;;;;;;;0.10;0.10;;;;;;;0.57;100.00;95923.19;4985481;28;20053;-74
2022/11/20 03:35:45;;;;;;;0.20;0.20;;;;;;;0.44;100.00;95923.16;4986797;28;20694;-74
2022/11/20 03:38:31;;;;;;;0.10;0.10;;;;;;;0.63;100.00;95930.31;4985271;28;20588;-72
2022/11/20 03:41:20;;;;;;;0.10;0.10;;;;;;;0.72;100.00;95928.31;4987110;28;20046;-71
2022/11/20 03:44:09;;;;;;;0.10;0.10;;;;;;;0.77;100.00;95929.31;4989934;28;20050;-72
2022/11/20 03:46:55;;;;;;;0.10;0.10;;;;;;;0.75;100.00;95933.16;4991590;28;20215;-72
2022/11/20 03:49:40;;;;;;;0.10;0.10;;;;;;;0.73;100.00;95922.84;4990931;28;20577;-73
2022/11/20 03:52:32;;;;;;;0.10;0.10;;;;;;;0.74;100.00;95919.19;4987972;28;20138;-71
2022/11/20 03:55:21;;;;;;;0.20;0.20;;;;;;;0.65;100.00;95925.66;4970251;28;20085;-74
2022/11/20 03:58:07;;;;;;;0.20;0.20;;;;;;;0.50;100.00;95894.22;4975800;28;20254;-75
2022/11/20 04:00:55;;;;;;;0.20;0.20;;;;;;;0.49;100.00;95897.06;4990323;28;20210;-71
2022/11/20 04:03:42;;;;;;;0.20;0.20;;;;;;;0.10;100.00;95901.19;4983768;28;20446;-72
2022/11/20 04:06:38;;;;;;;0.20;0.20;;;;;;;-0.07;100.00;95913.06;4968562;28;20058;-74
2022/11/20 04:09:24;;;;;;;0.15;0.15;;;;;;;-0.24;100.00;95922.25;4965911;28;20232;-74
2022/11/20 04:12:09;;;;;;;0.10;0.10;;;;;;;-0.20;100.00;95920.88;4968133;28;20088;-74
2022/11/20 04:14:55;;;;;;;0.20;0.20;;;;;;;0.10;100.00;95903.00;4965572;28;20197;-75
2022/11/20 04:17:41;;;;;;;0.30;0.20;;;;;;;0.27;100.00;95915.63;4962967;28;20876;-76
2022/11/20 04:20:27;;;;;;;0.20;0.20;;;;;;;0.23;100.00;95919.66;4965603;28;20051;-73
2022/11/20 04:23:13;;;;;;;0.10;0.10;;;;;;;0.43;100.00;95922.34;4961936;28;20042;-74
2022/11/20 04:26:10;;;;;;;0.20;0.20;;;;;;;0.63;100.00;95917.16;4979573;28;20039;-73
2022/11/20 04:28:57;;;;;;;0.28;0.20;;;;;;;0.78;100.00;95925.69;4958148;28;20085;-72
2022/11/20 04:31:43;;;;;;;0.20;0.20;;;;;;;0.78;100.00;95911.72;4964742;28;20050;-73
2022/11/20 04:34:29;;;;;;;0.20;0.20;;;;;;;0.44;100.00;95910.81;4967664;28;20578;-72
2022/11/20 04:37:15;;;;;;;0.10;0.10;;;;;;;0.06;100.00;95914.91;4966033;28;20046;-73
2022/11/20 04:40:01;;;;;;;0.20;0.20;;;;;;;0.14;100.00;95909.47;4969029;28;20039;-73
2022/11/20 04:42:49;;;;;;;0.28;0.20;;;;;;;0.08;100.00;95899.72;4967955;28;20270;-72
2022/11/20 04:45:35;;;;;;;0.10;0.10;;;;;;;0.02;100.00;95906.63;4968443;28;20081;-72
2022/11/20 04:48:29;;;;;;;0.20;0.20;;;;;;;0.17;100.00;95915.19;4952705;28;20153;-73
2022/11/20 04:51:15;;;;;;;0.43;0.30;;;;;;;0.22;100.00;95910.13;4964823;28;20050;-76
2022/11/20 04:54:01;;;;;;;0.10;0.10;;;;;;;0.46;100.00;95903.50;4965145;28;20045;-73
2022/11/20 04:56:47;;;;;;;0.15;0.15;;;;;;;0.48;100.00;95904.16;4965534;28;20053;-73
2022/11/20 04:59:33;;;;;;;0.20;0.20;;;;;;;0.56;100.00;95892.63;4975730;28;20062;-72
2022/11/20 05:02:20;;;;;;;0.20;0.20;;;;;;;0.46;100.00;95898.25;4961259;28;20113;-76
2022/11/20 05:05:06;;;;;;;0.10;0.10;;;;;;;0.36;100.00;95897.81;4960764;28;20055;-73
2022/11/20 05:07:52;;;;;;;0.20;0.20;;;;;;;0.47;100.00;95901.72;4950943;28;20039;-72
2022/11/20 05:10:38;;;;;;;0.20;0.20;;;;;;;0.28;100.00;95895.38;4944163;28;20051;-75
2022/11/20 05:13:23;;;;;;;0.25;0.20;;;;;;;0.25;100.00;95903.66;4942187;28;20050;-73
2022/11/20 05:16:12;;;;;;;0.10;0.10;;;;;;;0.05;100.00;95903.59;4952124;28;20106;-74
2022/11/20 05:18:58;;;;;;;0.20;0.20;;;;;;;0.07;100.00;95901.56;4949470;28;20565;-72
2022/11/20 05:21:44;;;;;;;0.40;0.30;;;;;;;0.15;100.00;95906.66;4950272;28;20039;-73
2022/11/20 05:24:30;;;;;;;0.20;0.20;;;;;;;0.01;100.00;95896.28;4951372;28;20042;-74
2022/11/20 05:27:16;;;;;;;0.10;0.10;;;;;;;0.13;100.00;95892.06;4952811;28;20499;-75
2022/11/20 05:30:03;;;;;;;0.25;0.20;;;;;;;0.20;100.00;95879.75;4925494;28;20054;-75
2022/11/20 05:32:49;;;;;;;0.20;0.20;;;;;;;0.35;100.00;95890.13;4948519;28;20151;-73
2022/11/20 05:35:35;;;;;;;0.32;0.20;;;;;;;0.57;100.00;95883.69;4946897;28;20998;-75
2022/11/20 05:38:20;;;;;;;0.75;0.30;;;;;;;0.73;100.00;95882.50;4953333;28;20031;-72
2022/11/20 05:41:18;;;;;;;0.47;0.30;;;;;;;0.87;100.00;95888.63;4950957;28;20043;-74
2022/11/20 05:44:04;;;;;;;0.60;0.30;;;;;;;0.91;100.00;95887.19;4956128;28;20046;-71
2022/11/20 05:46:50;;;;;;;0.77;0.43;;;;;;;1.04;100.00;95881.94;4952305;28;20043;-74
2022/11/20 05:49:36;;;;;;;0.73;0.38;;;;;;;1.00;100.00;95878.06;4955604;28;20417;-73
2022/11/20 05:52:22;;;;;;;0.35;0.20;;;;;;;0.88;100.00;95874.44;4944877;28;20053;-70
2022/11/20 05:55:08;;;;;;;0.32;0.22;;;;;;;0.83;100.00;95870.56;4954490;28;20047;-73
2022/11/20 05:57:54;;;;;;;1.48;0.65;;;;;;;0.83;100.00;95875.81;4949877;28;20047;-70
2022/11/20 06:00:40;;;;;;;1.33;0.52;;;;;;;0.85;100.00;95875.63;4954403;28;20039;-72
2022/11/20 06:03:26;;;;;;;0.82;0.47;;;;;;;0.86;100.00;95879.91;4948150;28;20042;-73
2022/11/20 06:06:13;;;;;;;0.68;0.30;;;;;;;0.84;100.00;95887.97;4987632;28;20088;-76
2022/11/20 06:08:59;;;;;;;0.77;0.38;;;;;;;0.81;100.00;95880.50;4986462;28;20045;-71
2022/11/20 06:11:44;;;;;;;0.80;0.40;;;;;;;0.86;100.00;95884.34;4982069;28;20081;-75
2022/11/20 06:14:30;;;;;;;0.25;0.20;;;;;;;0.92;100.00;95873.81;4984202;28;20046;-76
2022/11/20 06:17:16;;;;;;;0.70;0.30;;;;;;;1.11;100.00;95875.66;4983477;28;20042;-72
2022/11/20 06:20:03;;;;;;;0.60;0.30;;;;;;;1.29;100.00;95871.56;4963712;28;20049;-71
2022/11/20 06:22:49;;;;;;;1.95;1.02;;;;;;;1.36;100.00;95872.38;4968299;28;20554;-72
2022/11/20 06:25:39;;;;;;;1.85;0.77;;;;;;;1.45;100.00;95876.41;4959346;28;20049;-73
2022/11/20 06:28:25;;;;;;;1.70;0.80;;;;;;;1.44;100.00;95869.53;4987364;28;20058;-73
2022/11/20 06:31:13;;;;;;;2.08;1.00;;;;;;;1.52;100.00;95884.31;4983603;28;20151;-71
2022/11/20 06:34:02;;;;;;;2.90;1.52;;;;;;;1.47;100.00;95881.47;4978217;28;20042;-74
2022/11/20 06:36:49;;;;;;;2.40;1.27;;;;;;;1.44;100.00;95889.81;4986827;28;20034;-74
2022/11/20 06:39:35;;;;;;;1.67;0.85;;;;;;;1.46;100.00;95883.31;4981805;28;20449;-74
2022/11/20 06:42:23;;;;;;;0.82;0.40;;;;;;;1.47;100.00;95887.56;4982062;28;20038;-75
2022/11/20 06:45:09;;;;;;;1.63;0.80;;;;;;;1.52;100.00;95879.84;4984338;28;20108;-72
2022/11/20 06:47:57;;;;;;;1.00;0.43;;;;;;;1.57;100.00;95890.59;4984700;28;20061;-75
2022/11/20 06:50:43;;;;;;;1.20;0.60;;;;;;;1.62;100.00;95892.59;4982074;28;20046;-71
2022/11/20 06:53:29;;;;;;;0.90;0.40;;;;;;;1.62;100.00;95901.34;4988102;28;20665;-72
2022/11/20 06:56:15;;;;;;;0.73;0.40;;;;;;;1.60;100.00;95903.38;4982219;28;20069;-72
2022/11/20 06:59:04;;;;;;;1.13;0.40;;;;;;;1.67;100.00;95895.44;4985015;28;20038;-74
2022/11/20 07:01:50;;;;;;;0.73;0.40;;;;;;;1.71;100.00;95898.47;4979536;28;20044;-75
2022/11/20 07:04:36;;;;;;;0.60;0.30;;;;;;;1.73;100.00;95899.09;4979188;28;20619;-73
2022/11/20 07:07:26;;;;;;;0.57;0.38;;;;;;;1.79;100.00;95907.00;4979368;28;20407;-69
2022/11/20 07:10:12;;;;;;;0.20;0.20;;;;;;;1.79;100.00;95899.09;4969004;28;20105;-73
2022/11/20 07:12:58;;;;;;;0.20;0.20;;;;;;;1.78;100.00;95902.72;4981347;28;20042;-71
2022/11/20 07:15:44;;;;;;;0.20;0.20;;;;;;;1.82;100.00;95913.69;4981837;28;20030;-71
2022/11/20 07:18:30;;;;;;;0.57;0.35;;;;;;;1.72;100.00;95908.84;4956506;28;20108;-74
2022/11/20 07:21:16;;;;;;;0.98;0.50;;;;;;;1.53;100.00;95909.66;4973443;28;20499;-72
2022/11/20 07:24:03;;;;;;;1.58;0.75;;;;;;;1.56;100.00;95923.28;4984251;28;20038;-72
2022/11/20 07:26:49;;;;;;;2.00;1.00;;;;;;;1.40;100.00;95910.50;4975883;28;20129;-72
2022/11/20 07:29:41;;;;;;;0.47;0.32;;;;;;;1.25;100.00;95910.72;4972160;28;20065;-71
2022/11/20 07:32:27;;;;;;;0.73;0.40;;;;;;;1.41;100.00;95921.88;4644433;28;9999864;-72
2022/11/20 07:35:13;;;;;;;2.45;1.17;;;;;;;1.55;100.00;95912.91;4990004;28;20677;-71
2022/11/20 07:37:59;;;;;;;3.13;1.65;;;;;;;1.66;100.00;95917.56;4966501;28;20046;-74
2022/11/20 07:40:46;;;;;;;1.67;0.85;;;;;;;1.74;100.00;95925.28;4985591;28;20031;-72
2022/11/20 07:43:31;;;;;;;2.22;1.10;;;;;;;1.80;100.00;95926.28;4985451;28;20073;-73
2022/11/20 07:46:19;;;;;;;1.76;0.88;;;;;;;1.82;100.00;95925.06;4639623;28;10000957;-72
2022/11/20 07:49:05;;;;;;;1.02;0.50;;;;;;;1.84;100.00;95927.47;4988107;28;20034;-72
2022/11/20 07:51:53;;;;;;;1.10;0.50;;;;;;;1.86;100.00;95926.25;4991984;28;20157;-72
2022/11/20 07:54:39;;;;;;;0.85;0.45;;;;;;;1.86;100.00;95920.97;4985439;28;20037;-72
2022/11/20 07:57:25;;;;;;;2.50;1.40;;;;;;;1.89;100.00;95930.31;4988384;28;20137;-71
2022/11/20 08:00:13;;;;;;;1.17;0.52;;;;;;;1.88;100.00;95937.41;4979831;28;20038;-70
2022/11/20 08:03:03;;;;;;;0.68;0.30;;;;;;;1.76;100.00;95927.69;4987187;28;20104;-71
2022/11/20 08:05:49;;;;;;;0.75;0.45;;;;;;;1.72;100.00;95948.41;4991838;28;20058;-70
2022/11/20 08:08:35;;;;;;;1.10;0.50;;;;;;;1.69;100.00;95946.16;4992186;28;20105;-72
2022/11/20 08:14:29;;;;;;;1.20;0.60;;;;;;;1.73;100.00;95936.03;4991726;28;20404;-71
2022/11/20 08:17:14;;;;;;;1.48;0.75;;;;;;;1.72;100.00;95944.97;4962934;28;20041;-71
2022/11/20 08:20:00;;;;;;;1.40;0.82;;;;;;;1.68;100.00;95939.28;4981310;28;20053;-73
2022/11/20 08:22:46;;;;;;;1.70;0.77;;;;;;;1.74;100.00;95943.75;4982130;28;20108;-75
2022/11/20 08:25:36;;;;;;;1.15;0.68;;;;;;;1.71;100.00;95944.13;4981380;28;20600;-74
2022/11/20 08:28:22;;;;;;;1.98;0.98;;;;;;;1.62;100.00;95955.91;4984226;28;20742;-75
2022/11/20 08:31:09;;;;;;;1.40;0.75;;;;;;;1.48;100.00;95956.94;4950175;28;20038;-76
2022/11/20 08:33:58;;;;;;;1.95;0.98;;;;;;;1.44;100.00;95953.09;4970336;28;20320;-75
2022/11/20 08:36:44;;;;;;;1.58;0.88;;;;;;;1.38;100.00;95952.06;4972042;28;20246;-72
2022/11/20 08:39:30;;;;;;;1.48;0.70;;;;;;;1.43;100.00;95949.66;4985319;28;20122;-76
2022/11/20 08:42:16;;;;;;;1.60;0.88;;;;;;;1.48;100.00;95954.28;4987556;28;20037;-75
2022/11/20 08:45:02;;;;;;;1.42;0.77;;;;;;;1.49;100.00;95954.13;4986409;28;20561;-73
2022/11/20 08:47:48;;;;;;;2.88;1.42;;;;;;;1.61;100.00;95952.47;4971506;28;20133;-74
2022/11/20 08:50:34;;;;;;;1.98;0.90;;;;;;;1.61;100.00;95952.47;4980949;28;20053;-73
2022/11/20 08:53:20;;;;;;;2.75;1.50;;;;;;;1.76;100.00;95936.41;4982120;28;20062;-76
2022/11/20 08:56:06;;;;;;;1.50;0.75;;;;;;;1.83;100.00;95945.13;4984943;28;20573;-75
2022/11/20 08:58:52;;;;;;;2.08;1.10;;;;;;;1.85;100.00;95947.56;4971341;28;20427;-77
2022/11/20 09:01:38;;;;;;;1.42;0.75;;;;;;;1.89;100.00;95956.69;4972147;28;20053;-76
2022/11/20 09:04:24;;;;;;;1.50;0.70;;;;;;;1.91;100.00;95947.56;4984240;28;20248;-75
2022/11/20 09:07:10;;;;;;;2.22;1.23;;;;;;;2.07;100.00;95958.69;4982201;28;20041;-73
2022/11/20 09:09:56;;;;;;;1.42;0.60;;;;;;;1.91;100.00;95958.09;4984003;28;20509;-72
2022/11/20 09:12:42;;;;;;;1.05;0.57;;;;;;;1.76;100.00;95954.88;4980544;28;20474;-74
2022/11/20 09:15:28;;;;;;;3.13;1.85;;;;;;;2.00;100.00;95952.59;4976851;28;20042;-73
2022/11/20 09:18:14;;;;;;;2.30;1.23;;;;;;;2.20;100.00;95942.81;4985103;28;20557;-74
2022/11/20 09:21:01;;;;;;;2.47;1.13;;;;;;;2.27;100.00;95943.59;4984268;28;20280;-72
2022/11/20 09:23:47;;;;;;;2.08;1.10;;;;;;;2.24;100.00;95939.53;4983057;28;20068;-74
2022/11/20 09:26:33;;;;;;;2.88;1.45;;;;;;;2.33;100.00;95948.03;4982094;28;20042;-77
2022/11/20 09:29:19;;;;;;;1.27;0.60;;;;;;;2.38;100.00;95953.50;4958890;28;20088;-72
2022/11/20 09:32:05;;;;;;;2.08;1.00;;;;;;;2.53;100.00;95953.25;4986700;28;20378;-73
2022/11/20 09:34:51;;;;;;;0.95;0.50;;;;;;;2.53;100.00;95963.81;4974531;28;20426;-73
2022/11/20 09:37:37;;;;;;;1.33;0.60;;;;;;;2.41;100.00;95960.19;4984086;28;20549;-76
2022/11/20 09:40:28;;;;;;;0.35;0.30;;;;;;;2.51;100.00;95956.09;4985300;28;20046;-74
2022/11/20 09:43:44;;;;;;;0.20;0.20;;;;;;;2.56;100.00;95959.94;4983501;28;20577;-72
2022/11/20 09:46:43;;;;;;;0.22;0.20;;;;;;;2.39;100.00;95956.94;4981071;28;20965;-74
2022/11/20 09:49:49;;;;;;;0.30;0.30;;;;;;;2.38;100.00;95960.63;4982044;28;20124;-72
2022/11/20 09:52:55;;;;;;;0.20;0.20;;;;;;;2.50;100.00;95954.47;4987728;28;20121;-75
2022/11/20 09:55:41;;;;;;;0.20;0.20;;;;;;;2.53;100.00;95957.72;4997085;28;20369;-73
2022/11/20 09:58:45;;;;;;;0.20;0.20;;;;;;;2.53;100.00;95952.44;4991850;28;20060;-76
2022/11/20 10:01:38;;;;;;;0.10;0.10;;;;;;;2.60;100.00;95953.22;4997274;28;20404;-74
2022/11/20 10:04:32;;;;;;;0.10;0.10;;;;;;;2.59;100.00;95946.31;4993987;28;20077;-70
2022/11/20 10:07:41;;;;;;;0.20;0.20;;;;;;;2.59;100.00;95948.97;4996680;28;20050;-71
2022/11/20 10:10:44;;;;;;;0.20;0.20;;;;;;;2.51;100.00;95945.53;4997832;28;20057;-73
2022/11/20 10:13:44;;;;;;;0.20;0.20;;;;;;;2.45;100.00;95940.28;4996579;28;20056;-73
2022/11/20 10:16:40;;;;;;;0.20;0.20;;;;;;;2.50;100.00;95943.09;4991733;28;20652;-74
2022/11/20 10:19:50;;;;;;;0.10;0.10;;;;;;;2.53;100.00;95934.75;4979033;28;20073;-76
2022/11/20 10:22:54;;;;;;;0.10;0.10;;;;;;;2.55;100.00;95934.53;4979102;28;20042;-76
2022/11/20 10:26:01;;;;;;;0.20;0.20;;;;;;;2.63;100.00;95927.19;4981163;28;20046;-76
2022/11/20 10:29:01;;;;;;;0.20;0.20;;;;;;;2.75;100.00;95927.31;4979934;28;20042;-75
2022/11/20 10:31:56;;;;;;;0.10;0.10;;;;;;;2.81;100.00;95929.13;4953800;28;20050;-74
2022/11/20 10:35:17;;;;;;;0.10;0.10;;;;;;;2.83;100.00;95924.44;4965719;28;20061;-76
2022/11/20 10:38:27;;;;;;;0.20;0.20;;;;;;;2.85;100.00;95924.22;4979594;28;20046;-73
2022/11/20 10:41:25;;;;;;;0.15;0.15;;;;;;;3.11;100.00;95923.22;4965916;28;20038;-75
2022/11/20 10:47:26;;;;;;;0.17;0.17;;;;;;;3.17;100.00;95928.47;4981217;28;20407;-75
2022/11/20 10:50:18;;;;;;;0.20;0.20;;;;;;;3.22;100.00;95926.00;4979667;28;20546;-76
2022/11/20 10:53:19;;;;;;;0.20;0.20;;;;;;;3.25;100.00;95917.63;4981394;28;20034;-72
2022/11/20 10:56:14;;;;;;;0.10;0.10;;;;;;;3.13;100.00;95919.34;4982735;28;20042;-74
2022/11/20 10:59:12;;;;;;;0.10;0.10;;;;;;;3.24;100.00;95913.38;4979266;28;20432;-73
2022/11/20 11:01:58;;;;;;;0.13;0.13;;;;;;;3.30;100.00;95909.06;4969909;28;20125;-74
2022/11/20 11:04:48;;;;;;;0.10;0.10;;;;;;;3.15;100.00;95904.09;4981469;28;20803;-73
2022/11/20 11:07:39;;;;;;;0.10;0.10;;;;;;;3.42;100.00;95903.84;4977665;28;20050;-75
2022/11/20 11:10:44;;;;;;;0.20;0.20;;;;;;;3.42;100.00;95888.78;4978408;28;20045;-74
2022/11/20 11:13:30;;;;;;;0.20;0.20;;;;;;;3.37;100.00;95893.13;4965909;28;20042;-75
2022/11/20 11:16:24;;;;;;;0.10;0.10;;;;;;;3.54;100.00;95887.06;4981403;28;20038;-74
2022/11/20 11:19:13;;;;;;;0.20;0.20;;;;;;;3.60;100.00;95888.84;4979178;28;21140;-75
2022/11/20 11:21:59;;;;;;;0.20;0.20;;;;;;;3.68;100.00;95887.75;4982078;28;20049;-72
2022/11/20 11:24:53;;;;;;;0.10;0.10;;;;;;;3.54;100.00;95892.34;4978633;28;20120;-74
2022/11/20 11:27:51;;;;;;;0.10;0.10;;;;;;;3.43;100.00;95882.50;4698947;28;10000840;-73
2022/11/20 11:30:43;;;;;;;0.10;0.10;;;;;;;3.34;100.00;95881.94;4976777;28;20257;-76
2022/11/20 11:33:33;;;;;;;0.20;0.20;;;;;;;3.42;100.00;95867.63;4976589;28;20053;-71
2022/11/20 11:36:24;;;;;;;0.20;0.20;;;;;;;3.52;100.00;95865.31;4981149;28;20438;-74
2022/11/20 11:39:15;;;;;;;0.10;0.10;;;;;;;3.48;100.00;95872.06;4976266;28;20363;-74
2022/11/20 11:42:01;;;;;;;0.15;0.15;;;;;;;3.25;100.00;95871.84;4980869;28;20456;-74
2022/11/20 11:45:06;;;;;;;0.20;0.20;;;;;;;3.42;100.00;95869.47;4976817;28;20125;-74
2022/11/20 11:47:56;;;;;;;0.20;0.20;;;;;;;3.55;100.00;95861.41;4969292;28;20546;-72
2022/11/20 11:50:49;;;;;;;0.20;0.20;;;;;;;3.58;100.00;95847.75;4976959;28;21410;-72
2022/11/20 11:53:41;;;;;;;0.20;0.20;;;;;;;3.24;100.00;95849.09;4975797;28;20068;-76
2022/11/20 11:56:28;;;;;;;0.20;0.20;;;;;;;3.39;100.00;95846.13;4981138;28;20474;-72
2022/11/20 11:59:25;;;;;;;0.20;0.20;;;;;;;3.23;100.00;95836.91;4977114;28;20703;-75
2022/11/20 12:02:27;;;;;;;0.20;0.20;;;;;;;3.11;100.00;95843.91;4975899;28;20180;-75
2022/11/20 12:05:20;;;;;;;0.20;0.20;;;;;;;3.33;100.00;95831.91;4978673;28;20530;-74
2022/11/20 12:08:23;;;;;;;0.15;0.15;;;;;;;3.24;100.00;95841.97;4969485;28;20100;-74
2022/11/20 12:11:19;;;;;;;0.10;0.10;;;;;;;3.47;100.00;95848.47;4978985;28;20042;-74
2022/11/20 12:14:23;;;;;;;0.20;0.20;;;;;;;3.29;100.00;95836.03;4967260;28;20149;-73
2022/11/20 12:17:13;;;;;;;0.20;0.20;;;;;;;3.37;100.00;95837.59;4963338;28;20101;-73
2022/11/20 12:19:59;;;;;;;0.20;0.20;;;;;;;3.63;100.00;95830.19;4979127;28;20554;-74
2022/11/20 12:22:58;;;;;;;0.20;0.20;;;;;;;3.76;100.00;95833.72;4974657;28;20045;-77
2022/11/20 12:25:51;;;;;;;0.20;0.20;;;;;;;3.98;100.00;95824.31;4978476;28;20058;-75
2022/11/20 12:29:10;;;;;;;0.10;0.10;;;;;;;3.85;100.00;95819.97;4976415;28;20865;-75
2022/11/20 12:31:55;;;;;;;0.20;0.20;;;;;;;3.80;100.00;95811.88;4980546;28;20050;-73
2022/11/20 12:35:01;;;;;;;0.20;0.20;;;;;;;3.96;100.00;95812.31;4979080;28;20743;-74
2022/11/20 12:38:31;;;;;;;0.10;0.10;;;;;;;3.48;100.00;95815.69;4959860;28;20064;-75
2022/11/20 12:45:10;;;;;;;0.20;0.20;;;;;;;3.43;100.00;95811.09;4974821;28;20038;-76
2022/11/20 12:48:12;;;;;;;0.20;0.20;;;;;;;3.28;100.00;95802.69;4975366;28;20264;-74
2022/11/20 12:51:30;;;;;;;0.20;0.20;;;;;;;3.28;100.00;95810.63;4978661;28;20486;-75
2022/11/20 12:54:34;;;;;;;0.15;0.15;;;;;;;3.51;100.00;95797.56;4968890;28;20380;-75
2022/11/20 12:57:47;;;;;;;0.10;0.10;;;;;;;3.38;100.00;95789.75;4967302;28;20341;-74
2022/11/20 13:00:34;;;;;;;0.20;0.20;;;;;;;3.23;100.00;95790.09;4975017;28;20072;-76
2022/11/20 13:03:46;;;;;;;0.20;0.20;;;;;;;3.50;100.00;95772.16;4978027;28;20042;-71
2022/11/20 13:06:32;;;;;;;;;;;;;;;3.72;100.00;95776.97;4979393;28;20562;-71
2022/11/20 13:09:21;;;;;;;0.10;0.10;;;;;;;3.85;100.00;95790.06;4978877;28;20773;-74
2022/11/20 13:12:18;;;;;;;0.20;0.20;;;;;;;3.96;100.00;95784.00;4977483;28;20145;-75
2022/11/20 13:15:23;;;;;;;0.20;0.20;;;;;;;4.24;100.00;95780.78;4979217;28;20038;-72
2022/11/20 13:18:11;;;;;;;0.20;0.20;;;;;;;4.32;100.00;95777.00;4978451;28;20320;-74
2022/11/20 13:20:57;;;;;;;0.20;0.20;;;;;;;4.33;100.00;95770.69;4980898;28;20050;-77
2022/11/20 13:23:43;;;;;;;0.10;0.10;;;;;;;4.24;100.00;95772.03;4980159;28;20142;-72
2022/11/20 13:26:29;;;;;;;0.10;0.10;;;;;;;3.96;100.00;95770.75;4969483;28;20038;-70
2022/11/20 13:29:19;;;;;;;0.10;0.10;;;;;;;3.94;100.00;95762.25;4969311;28;20614;-73